^^
Saratoga-Weather Station Historical Data
Daily Summary for August 26, 2020 Units:  English    Metric   Both
Daily Weekly Monthly Yearly Custom
  High: Low: Average:
Temperature: 75.4 °F 62.6 °F 68.4 °F
Dew Point: 60.3 °F 51.3 °F 54.5 °F
Humidity: 79% 46% 62%
Wind Speed: 19mph 0mph 6.2mph
Wind Gust: 23mph - -
Wind- - West
Pressure: 30.1 in 29.7 in -
Precipitation: 0 in    
Historical Graphs
 
 
Tabular Data for August 26, 2020
Time Temperature Dew Point Pressure Wind Wind Speed Wind Gust Humidity Rainfall Rate (Hourly) solar
00:01 75.4 °F 59.5 °F 29.7 in WNW 6 mph 16 mph 58% 0 in 0 W/m2
00:06 75.4 °F 59.5 °F 29.7 in WNW 2 mph 9 mph 58% 0 in 0 W/m2
00:11 75.2 °F 59.4 °F 29.7 in SW 4 mph 15 mph 58% 0 in 0 W/m2
00:16 75 °F 59.7 °F 29.7 in West 4 mph 12 mph 59% 0 in 0 W/m2
00:21 74.8 °F 59.5 °F 29.7 in West 10.1 mph 15 mph 59% 0 in 0 W/m2
00:27 74.7 °F 59.4 °F 29.7 in NNW 2.9 mph 8 mph 59% 0 in 0 W/m2
00:32 74.5 °F 59.2 °F 29.7 in West 8.9 mph 13 mph 59% 0 in 0 W/m2
00:37 74.1 °F 58.8 °F 29.7 in WSW 2 mph 9 mph 59% 0 in 0 W/m2
00:42 73.9 °F 59.2 °F 29.7 in NNW 6 mph 10 mph 60% 0 in 0 W/m2
00:47 73.8 °F 59 °F 29.7 in NW 2 mph 10 mph 60% 0 in 0 W/m2
00:52 73.6 °F 59.4 °F 29.7 in West 8.9 mph 16 mph 61% 0 in 0 W/m2
00:57 73.6 °F 59.7 °F 29.7 in West 6.9 mph 11 mph 62% 0 in 0 W/m2
01:02 73.2 °F 59.9 °F 29.7 in NW 6 mph 7 mph 63% 0 in 0 W/m2
01:07 73 °F 59.7 °F 29.7 in West 4 mph 17 mph 63% 0 in 0 W/m2
01:12 73 °F 60.1 °F 29.7 in WNW 2.9 mph 5 mph 64% 0 in 0 W/m2
01:17 72.9 °F 59.9 °F 29.7 in WSW 8.9 mph 17 mph 64% 0 in 0 W/m2
01:22 72.7 °F 60.3 °F 29.7 in NNW 8.9 mph 16 mph 65% 0 in 0 W/m2
01:27 72.5 °F 60.1 °F 29.7 in NW 4.9 mph 8 mph 65% 0 in 0 W/m2
01:32 72.3 °F 59.9 °F 29.7 in NW 4 mph 11 mph 65% 0 in 0 W/m2
01:37 72.1 °F 59.7 °F 29.7 in West 4 mph 15 mph 65% 0 in 0 W/m2
01:42 72 °F 59.5 °F 29.7 in WSW 2 mph 6 mph 65% 0 in 0 W/m2
01:47 71.8 °F 59.4 °F 29.7 in West 8.9 mph 10 mph 65% 0 in 0 W/m2
01:52 71.4 °F 58.6 °F 29.7 in NNW 10.1 mph 14 mph 64% 0 in 0 W/m2
01:57 71.4 °F 58.1 °F 29.7 in WNW 2.9 mph 5 mph 63% 0 in 0 W/m2
02:02 71.2 °F 57.6 °F 29.7 in WNW 4 mph 14 mph 62% 0 in 0 W/m2
02:07 71.1 °F 57.4 °F 29.7 in North 2 mph 12 mph 62% 0 in 0 W/m2
02:12 70.9 °F 57.7 °F 29.7 in NNW 2 mph 11 mph 63% 0 in 0 W/m2
02:17 70.7 °F 57.9 °F 29.7 in NW 8.9 mph 9 mph 64% 0 in 0 W/m2
02:22 70.5 °F 57.7 °F 29.8 in SW 4 mph 13 mph 64% 0 in 0 W/m2
02:27 70.3 °F 58.1 °F 29.8 in West 2.9 mph 10 mph 65% 0 in 0 W/m2
02:32 70 °F 58.1 °F 29.8 in WSW 4.9 mph 8 mph 66% 0 in 0 W/m2
02:37 69.6 °F 57.7 °F 29.8 in WNW 2 mph 11 mph 66% 0 in 0 W/m2
02:43 69.4 °F 57.9 °F 29.8 in WSW 6.9 mph 8 mph 67% 0 in 0 W/m2
02:48 69.3 °F 57.9 °F 29.8 in WNW 19 mph 21 mph 67% 0 in 0 W/m2
02:53 69.1 °F 57.7 °F 29.8 in WSW 13 mph 13 mph 67% 0 in 0 W/m2
02:58 68.9 °F 57.9 °F 29.8 in North 19 mph 19 mph 68% 0 in 0 W/m2
03:03 68.7 °F 57.7 °F 29.8 in WNW 2 mph 10 mph 68% 0 in 0 W/m2
03:08 68.5 °F 57.6 °F 29.8 in WNW 4.9 mph 11 mph 68% 0 in 0 W/m2
03:13 68.5 °F 57.9 °F 29.8 in WNW 4 mph 10 mph 69% 0 in 0 W/m2
03:18 68.4 °F 57.7 °F 29.8 in North 8.9 mph 13 mph 69% 0 in 0 W/m2
03:23 68.4 °F 58.3 °F 29.8 in West 6 mph 9 mph 70% 0 in 0 W/m2
03:28 68.2 °F 58.1 °F 29.8 in West 4 mph 6 mph 70% 0 in 0 W/m2
03:33 67.8 °F 58.1 °F 29.8 in West 6 mph 9 mph 71% 0 in 0 W/m2
03:38 67.8 °F 58.1 °F 29.8 in NW 2 mph 7 mph 71% 0 in 0 W/m2
03:43 67.6 °F 58.3 °F 29.8 in North 4 mph 10 mph 72% 0 in 0 W/m2
03:48 67.6 °F 58.3 °F 29.8 in North 2.9 mph 11 mph 72% 0 in 0 W/m2
03:53 67.5 °F 58.1 °F 29.8 in NNW 2.9 mph 7 mph 72% 0 in 0 W/m2
03:58 67.5 °F 58.5 °F 29.8 in West 4 mph 12 mph 73% 0 in 0 W/m2
04:03 67.5 °F 58.5 °F 29.8 in SW 4 mph 12 mph 73% 0 in 0 W/m2
04:08 67.3 °F 58.3 °F 29.8 in West 6 mph 16 mph 73% 0 in 0 W/m2
04:13 67.1 °F 58.1 °F 29.8 in NNW 4 mph 6 mph 73% 0 in 0 W/m2
04:18 66.9 °F 57.9 °F 29.8 in North 4 mph 16 mph 73% 0 in 0 W/m2
04:23 66.7 °F 57.7 °F 29.8 in NNE 4 mph 11 mph 73% 0 in 0 W/m2
04:28 66.7 °F 57.7 °F 29.8 in NW 11 mph 11 mph 73% 0 in 0 W/m2
04:33 66.6 °F 58.1 °F 29.8 in NW 4.9 mph 12 mph 74% 0 in 0 W/m2
04:38 66.4 °F 57.9 °F 29.8 in WSW 4 mph 10 mph 74% 0 in 0 W/m2
04:43 66.4 °F 57.9 °F 29.8 in West 11 mph 14 mph 74% 0 in 0 W/m2
04:48 66 °F 57.6 °F 29.8 in SSW 0.9 mph 10 mph 74% 0 in 0 W/m2
04:53 66 °F 57.6 °F 29.8 in NW 2.9 mph 10 mph 74% 0 in 0 W/m2
04:58 65.8 °F 57.4 °F 29.8 in WSW 6 mph 13 mph 74% 0 in 0 W/m2
05:03 65.7 °F 57.2 °F 29.8 in West 4 mph 14 mph 74% 0 in 0 W/m2
05:09 65.5 °F 57 °F 29.8 in SE 8.1 mph 15 mph 74% 0 in 0 W/m2
05:14 65.5 °F 57 °F 29.8 in WNW 4 mph 6 mph 74% 0 in 0 W/m2
05:19 65.1 °F 57 °F 29.8 in NW 8.9 mph 16 mph 75% 0 in 0 W/m2
05:24 64.9 °F 56.8 °F 29.8 in WNW 8.9 mph 9 mph 75% 0 in 0 W/m2
05:29 64.9 °F 56.8 °F 29.8 in WNW 2.9 mph 7 mph 75% 0 in 0 W/m2
05:34 64.8 °F 56.7 °F 29.8 in West 8.1 mph 13 mph 75% 0 in 0 W/m2
05:39 64.6 °F 56.5 °F 29.8 in WNW 4 mph 12 mph 75% 0 in 0 W/m2
05:44 64.4 °F 56.3 °F 29.8 in NNW 2 mph 11 mph 75% 0 in 0 W/m2
05:49 64 °F 56.3 °F 29.8 in WNW 4.9 mph 10 mph 76% 0 in 0 W/m2
05:54 64 °F 56.3 °F 29.8 in WNW 6.9 mph 7 mph 76% 0 in 0 W/m2
05:59 63.9 °F 56.1 °F 29.8 in WSW 2.9 mph 10 mph 76% 0 in 0 W/m2
06:04 63.7 °F 56.3 °F 29.8 in West 2.9 mph 5 mph 77% 0 in 0 W/m2
06:09 63.3 °F 55.9 °F 29.8 in WNW 10.1 mph 11 mph 77% 0 in 0 W/m2
06:15 63.1 °F 56.1 °F 29.8 in WNW 8.9 mph 13 mph 78% 0 in 0 W/m2
06:20 63.1 °F 56.1 °F 29.8 in NW 8.9 mph 13 mph 78% 0 in 0 W/m2
06:25 63 °F 55.9 °F 29.8 in WNW 2.9 mph 9 mph 78% 0 in 0 W/m2
06:30 63 °F 55.9 °F 29.8 in WNW 8.1 mph 12 mph 78% 0 in 0 W/m2
06:35 62.8 °F 56.1 °F 29.8 in South 0.9 mph 12 mph 79% 0 in 0 W/m2
06:40 62.8 °F 56.1 °F 29.8 in West 8.9 mph 9 mph 79% 0 in 0 W/m2
06:45 62.8 °F 56.1 °F 29.8 in WNW 8.9 mph 12 mph 79% 0 in 0 W/m2
06:50 62.8 °F 56.1 °F 29.8 in SW 4.9 mph 11 mph 79% 0 in 5 W/m2
06:55 62.6 °F 55.9 °F 29.8 in West 4 mph 9 mph 79% 0 in 7 W/m2
07:00 62.6 °F 55.9 °F 29.8 in West 6 mph 10 mph 79% 0 in 11 W/m2
07:05 62.6 °F 55.9 °F 29.8 in WSW 8.9 mph 12 mph 79% 0 in 14 W/m2
07:10 62.6 °F 55.9 °F 29.8 in West 6 mph 17 mph 79% 0 in 14 W/m2
07:15 62.6 °F 55.9 °F 29.8 in WNW 16.1 mph 16 mph 79% 0 in 23 W/m2
07:20 62.6 °F 55.9 °F 29.8 in NW 6.9 mph 9 mph 79% 0 in 21 W/m2
07:25 62.8 °F 56.1 °F 29.8 in NW 6 mph 15 mph 79% 0 in 25 W/m2
07:30 62.8 °F 56.1 °F 29.8 in SW 6 mph 10 mph 79% 0 in 33 W/m2
07:35 62.8 °F 56.1 °F 29.8 in West 6.9 mph 15 mph 79% 0 in 21 W/m2
07:40 62.8 °F 56.1 °F 29.8 in WNW 8.9 mph 11 mph 79% 0 in 39 W/m2
07:45 62.8 °F 56.1 °F 29.9 in WNW 6.9 mph 15 mph 79% 0 in 49 W/m2
07:50 62.8 °F 55.8 °F 29.9 in WNW 8.1 mph 12 mph 78% 0 in 56 W/m2
07:55 62.8 °F 56.1 °F 29.9 in West 6 mph 10 mph 79% 0 in 44 W/m2
08:00 62.8 °F 55.8 °F 29.9 in West 8.1 mph 16 mph 78% 0 in 49 W/m2
08:05 62.8 °F 55.8 °F 29.9 in West 8.1 mph 9 mph 78% 0 in 84 W/m2
08:10 63 °F 55.9 °F 29.9 in West 2.9 mph 16 mph 78% 0 in 91 W/m2
08:15 63.1 °F 56.1 °F 29.9 in NW 4.9 mph 8 mph 78% 0 in 81 W/m2
08:20 63.1 °F 55.8 °F 29.9 in West 6 mph 8 mph 77% 0 in 104 W/m2
08:25 63.1 °F 55.8 °F 29.9 in NW 4 mph 14 mph 77% 0 in 76 W/m2
08:30 63.1 °F 55.8 °F 29.9 in NW 12.1 mph 13 mph 77% 0 in 93 W/m2
08:35 63.1 °F 55.8 °F 29.9 in WNW 8.1 mph 8 mph 77% 0 in 100 W/m2
08:40 63.3 °F 55.6 °F 29.9 in West 10.1 mph 13 mph 76% 0 in 86 W/m2
08:45 63.5 °F 55.4 °F 29.9 in SW 10.1 mph 11 mph 75% 0 in 142 W/m2
08:50 63.7 °F 55.6 °F 29.9 in West 6.9 mph 8 mph 75% 0 in 111 W/m2
08:55 63.7 °F 55.2 °F 29.9 in West 12.1 mph 13 mph 74% 0 in 118 W/m2
09:00 63.7 °F 55.2 °F 29.9 in West 8.1 mph 15 mph 74% 0 in 144 W/m2
09:05 63.7 °F 54.9 °F 29.9 in NW 2.9 mph 12 mph 73% 0 in 91 W/m2
09:10 63.7 °F 54.5 °F 29.9 in WNW 4.9 mph 15 mph 72% 0 in 211 W/m2
09:15 63.9 °F 55 °F 29.9 in WNW 4.9 mph 12 mph 73% 0 in 309 W/m2
09:20 64 °F 54.1 °F 29.9 in WNW 8.1 mph 20 mph 70% 0 in 169 W/m2
09:25 64.4 °F 54 °F 29.9 in WNW 8.1 mph 10 mph 69% 0 in 156 W/m2
09:30 64.9 °F 54.5 °F 29.9 in WSW 15 mph 18 mph 69% 0 in 295 W/m2
09:35 64.9 °F 54.1 °F 29.9 in WNW 10.1 mph 14 mph 68% 0 in 105 W/m2
09:40 64.6 °F 54.1 °F 29.9 in WNW 10.1 mph 11 mph 69% 0 in 127 W/m2
09:45 64.2 °F 54.3 °F 29.9 in WNW 8.1 mph 12 mph 70% 0 in 216 W/m2
09:50 64.4 °F 54 °F 29.9 in West 2 mph 10 mph 69% 0 in 162 W/m2
09:55 64.4 °F 53.6 °F 29.9 in WSW 11 mph 15 mph 68% 0 in 156 W/m2
10:00 64.4 °F 53.6 °F 29.9 in NW 6 mph 11 mph 68% 0 in 132 W/m2
10:05 64.4 °F 53.6 °F 29.9 in SSW 6 mph 8 mph 68% 0 in 116 W/m2
10:10 64.4 °F 53.2 °F 29.9 in WNW 6.9 mph 12 mph 67% 0 in 120 W/m2
10:15 64.4 °F 53.2 °F 29.9 in West 2.9 mph 14 mph 67% 0 in 171 W/m2
10:20 64.6 °F 53.4 °F 29.9 in West 6 mph 9 mph 67% 0 in 176 W/m2
10:25 64.8 °F 53.6 °F 29.9 in SSW 4.9 mph 11 mph 67% 0 in 239 W/m2
10:30 65.1 °F 53.1 °F 29.9 in West 10.1 mph 14 mph 65% 0 in 190 W/m2
10:35 65.1 °F 52.7 °F 29.9 in NW 8.1 mph 12 mph 64% 0 in 232 W/m2
10:40 65.1 °F 52.7 °F 29.9 in NNW 2.9 mph 14 mph 64% 0 in 234 W/m2
10:46 65.7 °F 53.6 °F 29.9 in West 6.9 mph 18 mph 65% 0 in 223 W/m2
10:51 65.7 °F 53.2 °F 29.9 in WSW 8.1 mph 13 mph 64% 0 in 320 W/m2
10:56 66 °F 53.1 °F 29.9 in WNW 11 mph 18 mph 63% 0 in 246 W/m2
11:01 66 °F 53.4 °F 29.9 in West 2.9 mph 10 mph 64% 0 in 272 W/m2
11:06 66.4 °F 53.8 °F 29.9 in WSW 2.9 mph 9 mph 64% 0 in 230 W/m2
11:11 66.4 °F 53.4 °F 29.9 in WSW 4 mph 20 mph 63% 0 in 197 W/m2
11:16 66 °F 53.4 °F 29.9 in WNW 11 mph 16 mph 64% 0 in 367 W/m2
11:21 66.4 °F 53.8 °F 29.9 in West 10.1 mph 14 mph 64% 0 in 243 W/m2
11:26 66.2 °F 53.2 °F 29.9 in WSW 4.9 mph 10 mph 63% 0 in 218 W/m2
11:31 66 °F 53.4 °F 29.9 in NW 8.1 mph 11 mph 64% 0 in 260 W/m2
11:36 66 °F 53.4 °F 29.9 in WSW 2.9 mph 7 mph 64% 0 in 295 W/m2
11:41 66 °F 53.1 °F 29.9 in WSW 6 mph 17 mph 63% 0 in 241 W/m2
11:46 66 °F 53.4 °F 29.9 in WSW 4 mph 8 mph 64% 0 in 271 W/m2
11:52 66 °F 53.1 °F 29.9 in West 8.1 mph 19 mph 63% 0 in 306 W/m2
11:57 66.2 °F 53.6 °F 29.9 in North 8.9 mph 12 mph 64% 0 in 338 W/m2
12:02 66.4 °F 53.4 °F 29.9 in SSW 8.1 mph 19 mph 63% 0 in 251 W/m2
12:07 66.6 °F 53.1 °F 29.9 in WNW 8.9 mph 17 mph 62% 0 in 262 W/m2
12:12 66.6 °F 53.6 °F 29.9 in West 8.1 mph 18 mph 63% 0 in 318 W/m2
12:17 66.9 °F 53.4 °F 29.9 in West 6.9 mph 12 mph 62% 0 in 311 W/m2
12:22 67.5 °F 54 °F 29.9 in WNW 15 mph 15 mph 62% 0 in 294 W/m2
12:27 67.5 °F 53.6 °F 29.9 in West 14.1 mph 17 mph 61% 0 in 311 W/m2
12:32 67.6 °F 53.8 °F 29.9 in WSW 13 mph 13 mph 61% 0 in 429 W/m2
12:37 67.6 °F 53.8 °F 29.9 in West 4 mph 17 mph 61% 0 in 322 W/m2
12:42 67.6 °F 54.1 °F 29.9 in West 4 mph 10 mph 62% 0 in 292 W/m2
12:48 67.8 °F 53.4 °F 29.9 in NW 10.1 mph 14 mph 60% 0 in 422 W/m2
12:53 68.5 °F 54.1 °F 29.9 in NW 15 mph 15 mph 60% 0 in 977 W/m2
12:58 69.1 °F 54.1 °F 29.9 in WNW 4 mph 15 mph 59% 0 in 995 W/m2
13:03 69.1 °F 53.6 °F 29.9 in NW 10.1 mph 15 mph 58% 0 in 288 W/m2
13:08 68.7 °F 53.4 °F 29.9 in NW 6.9 mph 16 mph 58% 0 in 279 W/m2
13:13 68.7 °F 53.4 °F 29.9 in SSW 8.1 mph 13 mph 58% 0 in 253 W/m2
13:18 68.5 °F 53.2 °F 29.9 in NW 11 mph 15 mph 58% 0 in 255 W/m2
13:24 68.7 °F 53.4 °F 29.9 in WSW 8.1 mph 11 mph 58% 0 in 279 W/m2
13:29 68.7 °F 53.4 °F 29.9 in WNW 4.9 mph 16 mph 58% 0 in 237 W/m2
13:34 69.3 °F 53.4 °F 29.9 in WNW 16.1 mph 16 mph 57% 0 in 974 W/m2
13:39 69.1 °F 52.7 °F 29.9 in NNW 2 mph 22 mph 56% 0 in 299 W/m2
13:44 69.6 °F 53.2 °F 29.9 in WSW 10.1 mph 13 mph 56% 0 in 299 W/m2
13:49 70 °F 53.6 °F 29.9 in North 17 mph 17 mph 56% 0 in 779 W/m2
13:54 70.5 °F 53.6 °F 29.9 in West 8.9 mph 11 mph 55% 0 in 867 W/m2
13:59 71.1 °F 54.1 °F 29.9 in WNW 4.9 mph 7 mph 55% 0 in 860 W/m2
14:04 71.4 °F 53.4 °F 29.9 in NW 17 mph 17 mph 53% 0 in 863 W/m2
14:09 71.8 °F 53.8 °F 29.9 in WNW 4 mph 9 mph 53% 0 in 1051 W/m2
14:14 72.1 °F 53.6 °F 29.9 in NW 8.1 mph 11 mph 52% 0 in 360 W/m2
14:19 72 °F 53.4 °F 29.9 in WNW 11 mph 18 mph 52% 0 in 933 W/m2
14:24 72 °F 53.4 °F 29.9 in NNW 11 mph 14 mph 52% 0 in 276 W/m2
14:29 72 °F 53.4 °F 29.9 in West 13 mph 18 mph 52% 0 in 248 W/m2
14:34 71.2 °F 53.2 °F 30 in WNW 8.1 mph 15 mph 53% 0 in 983 W/m2
14:39 71.8 °F 53.2 °F 30 in SW 2.9 mph 13 mph 52% 0 in 281 W/m2
14:44 71.8 °F 53.2 °F 30 in NW 4.9 mph 12 mph 52% 0 in 352 W/m2
14:49 72.3 °F 53.8 °F 30 in WNW 10.1 mph 15 mph 52% 0 in 279 W/m2
14:54 72.7 °F 54 °F 30 in WNW 8.1 mph 8 mph 52% 0 in 279 W/m2
14:59 72 °F 52.9 °F 30 in West 8.9 mph 17 mph 51% 0 in 239 W/m2
15:04 71.4 °F 52.9 °F 30 in SW 6.9 mph 11 mph 52% 0 in 183 W/m2
15:09 71.2 °F 52.7 °F 30 in WSW 4 mph 11 mph 52% 0 in 271 W/m2
15:14 71.8 °F 53.2 °F 30 in West 12.1 mph 12 mph 52% 0 in 234 W/m2
15:19 72.1 °F 53.6 °F 30 in WSW 8.1 mph 11 mph 52% 0 in 826 W/m2
15:24 72.3 °F 53.2 °F 30 in NW 8.1 mph 15 mph 51% 0 in 237 W/m2
15:29 72.7 °F 52.9 °F 30 in WNW 10.1 mph 15 mph 50% 0 in 835 W/m2
15:34 72.9 °F 53.1 °F 30 in WNW 6 mph 23 mph 50% 0 in 288 W/m2
15:39 72.9 °F 53.1 °F 30 in WNW 15 mph 19 mph 50% 0 in 810 W/m2
15:44 72.7 °F 53.4 °F 30 in NNW 4 mph 9 mph 51% 0 in 737 W/m2
15:49 73 °F 53.2 °F 30 in West 6 mph 17 mph 50% 0 in 195 W/m2
15:54 73.2 °F 53.4 °F 30 in West 2 mph 12 mph 50% 0 in 190 W/m2
15:59 73 °F 53.2 °F 30 in WNW 13 mph 18 mph 50% 0 in 830 W/m2
16:04 72.7 °F 52.9 °F 30 in West 11 mph 11 mph 50% 0 in 257 W/m2
16:09 72.7 °F 52.9 °F 30 in West 11 mph 18 mph 50% 0 in 257 W/m2
16:14 72.7 °F 52.9 °F 30 in NNW 8.1 mph 12 mph 50% 0 in 171 W/m2
16:19 73 °F 52.7 °F 30 in WSW 11 mph 16 mph 49% 0 in 793 W/m2
16:24 73.6 °F 53.2 °F 30 in WNW 11 mph 17 mph 49% 0 in 684 W/m2
16:29 73.4 °F 53.1 °F 30 in West 13 mph 14 mph 49% 0 in 617 W/m2
16:34 73.6 °F 53.2 °F 30 in SW 6.9 mph 17 mph 49% 0 in 624 W/m2
16:39 74.1 °F 53.8 °F 30 in NNE 8.9 mph 10 mph 49% 0 in 592 W/m2
16:44 73.9 °F 53.1 °F 30 in West 10.1 mph 11 mph 48% 0 in 311 W/m2
16:49 73.9 °F 53.1 °F 30 in West 8.9 mph 15 mph 48% 0 in 561 W/m2
16:54 73.8 °F 52.9 °F 30 in SW 11 mph 11 mph 48% 0 in 624 W/m2
16:59 74.1 °F 53.2 °F 30 in WNW 4.9 mph 15 mph 48% 0 in 613 W/m2
17:04 74.3 °F 53.4 °F 30 in NE 2 mph 10 mph 48% 0 in 626 W/m2
17:09 74.1 °F 53.2 °F 30 in NNW 10.1 mph 11 mph 48% 0 in 582 W/m2
17:14 74.3 °F 52.7 °F 30 in WSW 4.9 mph 15 mph 47% 0 in 552 W/m2
17:19 74.7 °F 53.1 °F 30 in WNW 4 mph 7 mph 47% 0 in 520 W/m2
17:24 74.8 °F 52.7 °F 30 in West 4 mph 14 mph 46% 0 in 533 W/m2
17:29 74.3 °F 52.7 °F 30 in WSW 12.1 mph 14 mph 47% 0 in 128 W/m2
17:34 73.9 °F 52.5 °F 30 in NW 10.1 mph 10 mph 47% 0 in 114 W/m2
17:39 73.2 °F 52.3 °F 30 in West 8.1 mph 14 mph 48% 0 in 109 W/m2
17:44 73 °F 52.7 °F 30 in WSW 4.9 mph 9 mph 49% 0 in 98 W/m2
17:49 72.9 °F 52 °F 30 in WNW 6.9 mph 12 mph 48% 0 in 97 W/m2
17:54 72.9 °F 52.5 °F 30 in West 8.9 mph 9 mph 49% 0 in 98 W/m2
17:59 72.9 °F 52.5 °F 30 in WNW 4 mph 16 mph 49% 0 in 165 W/m2
18:04 72.7 °F 51.8 °F 30 in WNW 8.9 mph 14 mph 48% 0 in 107 W/m2
18:09 72.7 °F 51.8 °F 30 in NW 8.1 mph 9 mph 48% 0 in 137 W/m2
18:14 73 °F 52.7 °F 30 in West 6 mph 9 mph 49% 0 in 325 W/m2
18:20 73 °F 52.2 °F 30 in West 8.1 mph 8 mph 48% 0 in 309 W/m2
18:25 73.4 °F 52 °F 30 in NW 4.9 mph 10 mph 47% 0 in 378 W/m2
18:30 72.9 °F 52 °F 30 in NW 4 mph 13 mph 48% 0 in 88 W/m2
18:35 72.7 °F 51.8 °F 30 in West 6 mph 8 mph 48% 0 in 158 W/m2
18:40 72.5 °F 52.3 °F 30 in NW 4 mph 8 mph 49% 0 in 111 W/m2
18:45 72.5 °F 52.3 °F 30 in NW 15 mph 15 mph 49% 0 in 100 W/m2
18:50 72.3 °F 52.2 °F 30 in NW 4.9 mph 8 mph 49% 0 in 70 W/m2
18:55 72.1 °F 52 °F 30 in SW 2 mph 9 mph 49% 0 in 174 W/m2
19:00 72.1 °F 52.5 °F 30 in SW 6.9 mph 7 mph 50% 0 in 165 W/m2
19:05 72.1 °F 52 °F 30 in WSW 4.9 mph 13 mph 49% 0 in 76 W/m2
19:10 72 °F 52.3 °F 30 in WSW 2 mph 7 mph 50% 0 in 174 W/m2
19:15 72.1 °F 52.5 °F 30 in West 2 mph 4 mph 50% 0 in 70 W/m2
19:20 72.1 °F 52.5 °F 30 in West 2.9 mph 7 mph 50% 0 in 137 W/m2
19:25 72.1 °F 52.5 °F 30 in WNW 2.9 mph 4 mph 50% 0 in 114 W/m2
19:30 72.1 °F 52.5 °F 30 in WSW 6.9 mph 10 mph 50% 0 in 62 W/m2
19:35 71.8 °F 52.2 °F 30 in West 4 mph 8 mph 50% 0 in 93 W/m2
19:40 71.6 °F 52 °F 30 in WNW 2 mph 9 mph 50% 0 in 49 W/m2
19:45 71.4 °F 51.8 °F 30 in WNW 2.9 mph 7 mph 50% 0 in 60 W/m2
19:50 71.2 °F 52.2 °F 30 in West 4 mph 9 mph 51% 0 in 28 W/m2
19:55 71.1 °F 52 °F 30 in WSW 6 mph 6 mph 51% 0 in 28 W/m2
20:00 70.9 °F 51.8 °F 30 in WSW 4.9 mph 9 mph 51% 0 in 21 W/m2
20:05 70.5 °F 51.4 °F 30 in West 4 mph 9 mph 51% 0 in 18 W/m2
20:10 70.5 °F 51.4 °F 30 in NW 4.9 mph 8 mph 51% 0 in 12 W/m2
20:15 70.3 °F 51.4 °F 30 in NW 2.9 mph 9 mph 51% 0 in 9 W/m2
20:20 70.3 °F 51.4 °F 30 in WSW 4.9 mph 7 mph 51% 0 in 7 W/m2
20:25 70.2 °F 51.3 °F 30 in West 2 mph 7 mph 51% 0 in 5 W/m2
20:30 69.8 °F 51.4 °F 30 in WNW 2 mph 4 mph 52% 0 in 0 W/m2
20:35 69.4 °F 51.6 °F 30 in WSW 2.9 mph 4 mph 53% 0 in 0 W/m2
20:40 69.3 °F 51.4 °F 30 in West 2 mph 4 mph 53% 0 in 0 W/m2
20:45 69.1 °F 51.8 °F 30 in West 2.9 mph 9 mph 54% 0 in 0 W/m2
20:50 68.9 °F 51.6 °F 30 in West 4 mph 6 mph 54% 0 in 0 W/m2
20:55 68.7 °F 52 °F 30 in WSW 4 mph 9 mph 55% 0 in 0 W/m2
21:00 68.5 °F 51.8 °F 30 in WSW 2.9 mph 4 mph 55% 0 in 0 W/m2
21:05 68.4 °F 51.6 °F 30 in West 2 mph 3 mph 55% 0 in 0 W/m2
21:10 68.4 °F 52 °F 30 in SW 2.9 mph 4 mph 56% 0 in 0 W/m2
21:15 68 °F 51.8 °F 30 in West 2.9 mph 3 mph 56% 0 in 0 W/m2
21:20 67.8 °F 51.6 °F 30 in WSW 4 mph 7 mph 56% 0 in 0 W/m2
21:25 67.6 °F 51.4 °F 30 in WNW 2 mph 4 mph 56% 0 in 0 W/m2
21:30 67.5 °F 51.6 °F 30 in West 2.9 mph 7 mph 57% 0 in 0 W/m2
21:35 67.5 °F 51.6 °F 30 in WSW 0.9 mph 5 mph 57% 0 in 0 W/m2
21:40 67.3 °F 51.4 °F 30 in West 2.9 mph 4 mph 57% 0 in 0 W/m2
21:45 67.3 °F 51.4 °F 30 in WNW 2.9 mph 4 mph 57% 0 in 0 W/m2
21:50 67.3 °F 51.4 °F 30 in WNW 2.9 mph 4 mph 57% 0 in 0 W/m2
21:55 66.9 °F 51.6 °F 30 in WNW 2.9 mph 4 mph 58% 0 in 0 W/m2
22:00 66.9 °F 51.6 °F 30 in West 6.9 mph 7 mph 58% 0 in 0 W/m2
22:05 66.7 °F 51.4 °F 30 in West 2 mph 6 mph 58% 0 in 0 W/m2
22:10 66.7 °F 52 °F 30 in West 2.9 mph 3 mph 59% 0 in 0 W/m2
22:15 66.6 °F 51.8 °F 30 in West 2.9 mph 4 mph 59% 0 in 0 W/m2
22:20 66.4 °F 51.6 °F 30 in West 2 mph 9 mph 59% 0 in 0 W/m2
22:25 66.4 °F 51.6 °F 30 in West 4 mph 4 mph 59% 0 in 0 W/m2
22:31 66.2 °F 52 °F 30.1 in WNW 2 mph 8 mph 60% 0 in 0 W/m2
22:36 65.8 °F 52 °F 30.1 in WNW 2.9 mph 3 mph 61% 0 in 0 W/m2
22:41 65.3 °F 52 °F 30.1 in WNW 2 mph 4 mph 62% 0 in 0 W/m2
22:46 64.8 °F 51.8 °F 30.1 in West 2.9 mph 4 mph 63% 0 in 0 W/m2
22:51 64.2 °F 51.8 °F 30.1 in WNW 2 mph 3 mph 64% 0 in 0 W/m2
22:56 63.9 °F 51.8 °F 30.1 in West 2 mph 3 mph 65% 0 in 0 W/m2
23:01 63.7 °F 51.6 °F 30.1 in WNW 2 mph 3 mph 65% 0 in 0 W/m2
23:06 63.5 °F 52 °F 30.1 in WNW 2 mph 4 mph 66% 0 in 0 W/m2
23:11 63.5 °F 52 °F 30.1 in West 2 mph 4 mph 66% 0 in 0 W/m2
23:16 63.5 °F 52 °F 30.1 in West 0.9 mph 3 mph 66% 0 in 0 W/m2
23:21 63.3 °F 51.8 °F 30.1 in West 2 mph 4 mph 66% 0 in 0 W/m2
23:26 63.3 °F 52.2 °F 30.1 in WSW 2 mph 4 mph 67% 0 in 0 W/m2
23:31 63.3 °F 52.2 °F 30.1 in West 2 mph 3 mph 67% 0 in 0 W/m2
23:36 63.1 °F 52.3 °F 30.1 in West 2 mph 3 mph 68% 0 in 0 W/m2
23:41 63.1 °F 52.3 °F 30.1 in Calm   2 mph 68% 0 in 0 W/m2
23:46 63 °F 52.2 °F 30.1 in WSW 2.9 mph 4 mph 68% 0 in 0 W/m2
23:51 62.8 °F 52.5 °F 30.1 in WSW 2.9 mph 5 mph 69% 0 in 0 W/m2
23:56 62.6 °F 52.7 °F 30.1 in West 2.9 mph 6 mph 70% 0 in 0 W/m2
Juneau County Weather
Compliments of Weather Underground - 4 mb